Time;durP1;ratioP1;P1;durP2;ratioP2;P2;SDS_P1;SDS_P2;PMS_P1;PMS_P2;Temp;Humidity;BMP_temperature;BMP_pressure;BME280_temperature;BME280_humidity;BME280_pressure;Samples;Min_cycle;Max_cycle;Signal;HPM_P1;HPM_P2
2023/05/11 00:01:05;;;;;;;2.33;1.92;;;14.30;99.50;;;;;;5055581;28;20115;-75
2023/05/11 00:03:31;;;;;;;4.13;1.80;;;14.30;99.00;;;;;;5055646;28;20470;-74
2023/05/11 00:05:58;;;;;;;1.65;1.55;;;14.40;98.90;;;;;;5055795;28;20060;-74
2023/05/11 00:08:24;;;;;;;3.20;1.80;;;14.40;98.70;;;;;;5055713;28;20041;-75
2023/05/11 00:10:49;;;;;;;2.13;1.83;;;14.40;98.60;;;;;;5055608;28;20045;-75
2023/05/11 00:13:16;;;;;;;2.70;1.83;;;14.40;98.60;;;;;;5055458;28;20075;-75
2023/05/11 00:15:42;;;;;;;1.52;1.42;;;14.30;98.60;;;;;;5055447;28;20133;-74
2023/05/11 00:18:07;;;;;;;2.33;1.35;;;14.30;98.60;;;;;;5055212;28;20112;-75
2023/05/11 00:20:33;;;;;;;3.13;1.73;;;14.30;98.70;;;;;;5055327;28;20037;-75
2023/05/11 00:22:59;;;;;;;3.42;1.65;;;14.30;98.80;;;;;;5055054;28;20112;-75
2023/05/11 00:25:25;;;;;;;2.35;1.50;;;14.30;99.00;;;;;;5037128;28;20052;-76
2023/05/11 00:27:50;;;;;;;1.90;1.50;;;14.30;99.00;;;;;;5055092;28;20071;-74
2023/05/11 00:30:16;;;;;;;2.67;1.40;;;14.40;98.90;;;;;;5055289;28;20052;-75
2023/05/11 00:32:43;;;;;;;8.13;1.35;;;14.30;98.60;;;;;;5056337;28;20123;-77
2023/05/11 00:35:10;;;;;;;2.67;1.25;;;14.40;98.90;;;;;;5055063;28;20045;-77
2023/05/11 00:37:37;;;;;;;3.97;1.30;;;14.30;99.20;;;;;;5054977;28;20040;-76
2023/05/11 00:40:03;;;;;;;3.53;1.65;;;14.40;99.20;;;;;;5055072;28;20033;-77
2023/05/11 00:42:29;;;;;;;1.35;1.20;;;14.30;99.30;;;;;;5020780;28;20045;-77
2023/05/11 00:44:56;;;;;;;2.03;1.52;;;14.30;99.20;;;;;;5054930;28;20033;-76
2023/05/11 00:47:22;;;;;;;3.72;1.42;;;14.40;99.50;;;;;;5035576;28;20044;-75
2023/05/11 00:49:49;;;;;;;1.50;1.30;;;14.40;99.50;;;;;;5037092;28;20033;-76
2023/05/11 00:52:15;;;;;;;2.65;1.30;;;14.40;99.60;;;;;;5055334;28;20472;-75
2023/05/11 00:54:41;;;;;;;3.08;1.17;;;14.40;99.60;;;;;;5055489;28;20437;-74
2023/05/11 00:57:07;;;;;;;2.63;1.50;;;14.40;99.40;;;;;;5055383;28;20041;-75
2023/05/11 00:59:33;;;;;;;2.15;1.42;;;14.40;99.50;;;;;;5052192;28;20491;-75
2023/05/11 01:01:59;;;;;;;1.45;1.33;;;14.30;99.80;;;;;;5052653;28;20041;-75
2023/05/11 01:04:28;;;;;;;2.50;1.40;;;14.40;99.90;;;;;;5053126;28;20511;-75
2023/05/11 01:28:00;;;;;;;2.72;1.83;;;14.20;99.90;;;;;;4973148;28;20401;-75
2023/05/11 01:31:06;;;;;;;2.72;1.60;;;14.30;99.90;;;;;;4972595;28;20122;-75
2023/05/11 01:33:34;;;;;;;3.08;1.65;;;14.30;99.90;;;;;;4972902;28;20047;-75
2023/05/11 01:36:09;;;;;;;2.90;1.13;;;14.30;99.90;;;;;;4972934;28;20398;-74
2023/05/11 01:38:40;;;;;;;4.40;1.60;;;14.30;99.90;;;;;;5004157;28;20030;-75
2023/05/11 01:41:14;;;;;;;1.83;1.10;;;14.30;99.90;;;;;;5034157;28;20068;-75
2023/05/11 01:43:43;;;;;;;1.48;1.38;;;14.30;99.90;;;;;;5034157;28;20072;-75
2023/05/11 01:46:11;;;;;;;1.35;1.05;;;14.30;99.90;;;;;;5033856;28;20029;-75
2023/05/11 01:48:41;;;;;;;5.60;1.30;;;14.30;99.90;;;;;;5033741;28;20064;-75
2023/05/11 01:51:07;;;;;;;1.10;1.00;;;14.30;99.80;;;;;;5033654;28;20365;-74
2023/05/11 01:53:37;;;;;;;3.28;1.27;;;14.30;99.60;;;;;;5033588;28;20408;-75
2023/05/11 01:56:05;;;;;;;2.70;1.30;;;14.30;99.60;;;;;;5016176;28;20046;-75
2023/05/11 01:58:33;;;;;;;3.50;1.45;;;14.30;99.90;;;;;;5033171;28;20503;-75
2023/05/11 02:01:01;;;;;;;5.50;1.30;;;14.30;99.90;;;;;;5033549;28;20079;-74
2023/05/11 02:03:30;;;;;;;4.22;1.40;;;14.30;99.90;;;;;;5033241;28;20495;-75
2023/05/11 02:05:57;;;;;;;1.30;1.20;;;14.30;99.90;;;;;;5033336;28;20506;-74
2023/05/11 02:08:24;;;;;;;2.08;1.42;;;14.30;99.90;;;;;;5033638;28;20049;-75
2023/05/11 02:10:52;;;;;;;1.98;1.33;;;14.30;99.90;;;;;;5033437;28;20041;-75
2023/05/11 02:13:19;;;;;;;1.63;1.40;;;14.30;99.90;;;;;;5033168;28;20030;-74
2023/05/11 02:15:46;;;;;;;4.05;1.60;;;14.30;99.90;;;;;;5033303;28;20037;-75
2023/05/11 02:18:14;;;;;;;2.10;1.20;;;14.20;99.90;;;;;;5033136;28;20558;-75
2023/05/11 02:20:44;;;;;;;1.42;1.10;;;14.30;99.90;;;;;;5033273;28;20056;-74
2023/05/11 02:23:10;;;;;;;1.50;1.05;;;14.30;99.90;;;;;;5033334;28;20399;-75
2023/05/11 02:25:40;;;;;;;1.10;1.00;;;14.30;99.90;;;;;;5042111;28;20116;-74
2023/05/11 02:28:06;;;;;;;2.92;1.30;;;14.30;99.90;;;;;;5052923;28;20033;-75
2023/05/11 02:30:38;;;;;;;2.38;1.25;;;14.30;99.90;;;;;;5052999;28;20037;-75
2023/05/11 02:33:07;;;;;;;4.15;1.10;;;14.30;99.90;;;;;;5070170;22;20103;-78
2023/05/11 02:35:38;;;;;;;1.02;0.95;;;14.30;99.90;;;;;;5053085;28;20095;-78
2023/05/11 02:38:04;;;;;;;1.85;1.10;;;14.30;99.90;;;;;;5053203;28;20029;-78
2023/05/11 02:40:33;;;;;;;4.35;1.00;;;14.30;99.90;;;;;;5052919;28;20486;-79
2023/05/11 02:43:11;;;;;;;1.50;1.10;;;14.30;99.90;;;;;;5052824;28;20112;-79
2023/05/11 02:45:41;;;;;;;2.97;1.00;;;14.30;99.90;;;;;;5052742;28;20037;-78
2023/05/11 02:48:16;;;;;;;1.23;1.00;;;14.30;99.90;;;;;;5053051;28;20473;-78
2023/05/11 02:50:42;;;;;;;1.60;1.00;;;14.30;99.90;;;;;;5052767;28;20025;-78
2023/05/11 02:53:13;;;;;;;4.32;0.90;;;14.30;99.90;;;;;;5052679;28;20041;-78
2023/05/11 02:55:41;;;;;;;1.00;0.90;;;14.30;99.90;;;;;;5052626;28;20033;-78
2023/05/11 02:58:07;;;;;;;1.98;0.80;;;14.30;99.90;;;;;;5052922;28;20486;-78
2023/05/11 03:00:33;;;;;;;4.50;1.02;;;14.30;99.90;;;;;;5052809;28;20040;-78
2023/05/11 03:02:59;;;;;;;3.15;1.48;;;14.30;99.90;;;;;;5052600;28;20509;-79
2023/05/11 03:05:25;;;;;;;2.55;1.08;;;14.30;99.90;;;;;;5052258;28;20044;-79
2023/05/11 03:07:55;;;;;;;3.13;1.27;;;14.30;99.90;;;;;;5067999;28;20029;-79
2023/05/11 03:10:23;;;;;;;0.82;0.80;;;14.30;99.90;;;;;;5051800;28;20513;-79
2023/05/11 03:12:49;;;;;;;3.17;1.05;;;14.30;99.90;;;;;;5052764;28;20033;-78
2023/05/11 03:15:15;;;;;;;2.53;0.77;;;14.30;99.90;;;;;;5052354;28;20049;-79
2023/05/11 03:17:42;;;;;;;2.78;1.08;;;14.30;99.90;;;;;;5052698;28;20075;-78
2023/05/11 03:20:09;;;;;;;2.88;0.90;;;14.20;99.90;;;;;;5052589;28;20551;-77
2023/05/11 03:22:36;;;;;;;2.20;0.95;;;14.20;99.90;;;;;;5052192;28;20033;-78
2023/05/11 03:25:03;;;;;;;1.77;0.90;;;14.20;99.90;;;;;;5052182;28;20034;-78
2023/05/11 03:27:32;;;;;;;5.32;0.80;;;14.20;99.90;;;;;;5052343;28;20040;-79
2023/05/11 03:29:59;;;;;;;0.85;0.60;;;14.20;99.90;;;;;;5052510;28;20036;-78
2023/05/11 03:32:25;;;;;;;0.90;0.50;;;14.30;99.90;;;;;;5044191;28;20092;-78
2023/05/11 03:34:51;;;;;;;2.67;0.60;;;14.30;99.90;;;;;;5032343;28;20077;-78
2023/05/11 03:37:18;;;;;;;1.40;0.73;;;14.30;99.90;;;;;;5030747;28;20123;-78
2023/05/11 03:39:47;;;;;;;1.02;0.70;;;14.30;99.90;;;;;;5032149;28;20446;-78
2023/05/11 03:42:14;;;;;;;0.90;0.70;;;14.30;99.90;;;;;;5032368;28;20041;-79
2023/05/11 03:44:43;;;;;;;0.73;0.70;;;14.30;99.90;;;;;;5032414;28;20384;-77
2023/05/11 03:47:10;;;;;;;0.50;0.50;;;14.30;99.90;;;;;;5032326;28;20487;-77
2023/05/11 03:49:37;;;;;;;0.90;0.47;;;14.30;99.90;;;;;;5032338;28;20037;-78
2023/05/11 03:52:04;;;;;;;2.03;0.55;;;14.30;99.90;;;;;;5032269;28;20038;-78
2023/05/11 03:54:31;;;;;;;2.10;0.60;;;14.30;99.90;;;;;;5032055;28;20049;-78
2023/05/11 03:56:56;;;;;;;0.73;0.68;;;14.30;99.90;;;;;;5031029;28;20037;-77
2023/05/11 03:59:23;;;;;;;2.60;0.60;;;14.30;99.90;;;;;;5032234;28;20087;-78
2023/05/11 04:01:51;;;;;;;1.45;0.50;;;14.30;99.90;;;;;;5032026;28;20038;-78
2023/05/11 04:04:18;;;;;;;3.63;0.43;;;14.30;99.90;;;;;;5032215;28;20030;-78
2023/05/11 04:06:44;;;;;;;1.45;0.60;;;14.30;99.90;;;;;;5032132;28;20068;-78
2023/05/11 04:09:10;;;;;;;0.68;0.45;;;14.30;99.90;;;;;;5032337;28;20075;-78
2023/05/11 04:11:37;;;;;;;1.95;0.60;;;14.30;99.90;;;;;;5031921;28;20037;-78
2023/05/11 04:14:03;;;;;;;1.35;0.52;;;14.30;99.90;;;;;;5032002;28;20036;-79
2023/05/11 04:16:29;;;;;;;1.58;0.60;;;14.30;99.90;;;;;;5047186;28;20065;-79
2023/05/11 04:18:54;;;;;;;2.17;0.60;;;14.30;99.90;;;;;;5031892;28;20099;-78
2023/05/11 04:21:20;;;;;;;1.20;0.60;;;14.30;99.90;;;;;;5033938;28;20100;-78
2023/05/11 04:23:46;;;;;;;1.63;0.57;;;14.30;99.90;;;;;;5035511;28;20032;-78
2023/05/11 04:26:12;;;;;;;5.72;0.63;;;14.30;99.90;;;;;;5050681;28;20033;-78
2023/05/11 04:28:38;;;;;;;2.25;0.50;;;14.30;99.90;;;;;;5035106;28;20040;-79
2023/05/11 04:31:03;;;;;;;2.47;0.40;;;14.30;99.90;;;;;;5035407;28;20116;-79
2023/05/11 04:33:29;;;;;;;1.17;0.60;;;14.30;99.90;;;;;;5052051;28;20076;-79
2023/05/11 04:35:57;;;;;;;1.73;0.80;;;14.30;99.90;;;;;;5053818;28;20057;-78
2023/05/11 04:38:23;;;;;;;1.67;0.90;;;14.30;99.90;;;;;;5055203;28;20036;-78
2023/05/11 04:40:49;;;;;;;2.30;0.80;;;14.30;99.90;;;;;;5055152;28;20029;-78
2023/05/11 04:43:15;;;;;;;3.42;0.60;;;14.30;99.90;;;;;;5055380;28;20083;-78
2023/05/11 04:45:47;;;;;;;2.05;0.80;;;14.30;99.90;;;;;;5055148;28;20036;-78
2023/05/11 04:48:12;;;;;;;2.97;0.90;;;14.30;99.90;;;;;;5054916;28;20028;-79
2023/05/11 04:50:38;;;;;;;3.10;1.55;;;14.30;99.90;;;;;;5053959;28;20115;-78
2023/05/11 04:53:04;;;;;;;2.42;0.85;;;14.30;99.90;;;;;;5053881;28;20108;-78
2023/05/11 04:55:29;;;;;;;1.20;0.65;;;14.30;99.90;;;;;;5053790;28;20079;-79
2023/05/11 04:57:55;;;;;;;1.55;0.52;;;14.30;99.90;;;;;;5036077;28;20029;-78
2023/05/11 05:00:21;;;;;;;1.38;0.90;;;14.30;99.90;;;;;;5054665;28;20053;-78
2023/05/11 05:02:47;;;;;;;2.67;0.80;;;14.30;99.90;;;;;;5054615;28;20033;-78
2023/05/11 05:05:12;;;;;;;1.10;0.52;;;14.30;99.90;;;;;;5054893;28;20108;-79
2023/05/11 05:07:38;;;;;;;2.05;0.60;;;14.30;99.90;;;;;;5054967;28;20033;-78
2023/05/11 05:10:07;;;;;;;2.47;0.88;;;14.30;99.90;;;;;;5039294;28;20037;-79
2023/05/11 05:12:35;;;;;;;1.35;0.70;;;14.30;99.90;;;;;;5054459;28;20021;-78
2023/05/11 05:15:01;;;;;;;0.85;0.55;;;14.40;99.90;;;;;;5054636;28;20033;-78
2023/05/11 05:17:27;;;;;;;0.80;0.55;;;14.40;99.90;;;;;;5054611;28;20033;-78
2023/05/11 05:19:52;;;;;;;2.38;0.80;;;14.40;99.90;;;;;;5036598;28;20067;-79
2023/05/11 05:22:18;;;;;;;0.85;0.70;;;14.50;99.90;;;;;;5054304;28;20037;-78
2023/05/11 05:24:44;;;;;;;1.98;0.98;;;14.50;99.90;;;;;;5054407;28;20037;-79
2023/05/11 05:27:09;;;;;;;5.32;0.80;;;14.50;99.90;;;;;;5054214;28;20033;-78
2023/05/11 05:29:35;;;;;;;1.67;0.80;;;14.50;99.90;;;;;;5054335;28;20033;-78
2023/05/11 05:32:01;;;;;;;4.53;0.65;;;14.50;99.80;;;;;;5035307;28;20135;-78
2023/05/11 05:34:27;;;;;;;1.23;0.80;;;14.50;99.70;;;;;;5054041;28;20048;-79
2023/05/11 05:36:52;;;;;;;0.95;0.90;;;14.50;99.60;;;;;;5053183;28;20112;-78
2023/05/11 05:39:19;;;;;;;4.60;1.10;;;14.50;99.70;;;;;;5053055;28;20033;-78
2023/05/11 05:41:45;;;;;;;1.98;1.20;;;14.50;99.80;;;;;;5053549;28;20144;-78
2023/05/11 05:44:11;;;;;;;1.58;1.00;;;14.50;99.50;;;;;;5053969;28;20029;-78
2023/05/11 05:46:36;;;;;;;1.55;1.23;;;14.50;99.50;;;;;;5035786;28;20447;-78
2023/05/11 05:49:02;;;;;;;1.35;0.90;;;14.50;99.60;;;;;;5053239;28;20044;-79
2023/05/11 05:51:28;;;;;;;1.67;1.20;;;14.60;99.90;;;;;;5035852;28;20029;-79
2023/05/11 05:53:54;;;;;;;1.75;1.17;;;14.50;99.90;;;;;;5053589;28;20119;-78
2023/05/11 05:56:20;;;;;;;2.42;1.50;;;14.60;99.80;;;;;;5035679;28;20044;-78
2023/05/11 05:58:46;;;;;;;1.70;1.50;;;14.60;99.60;;;;;;5053021;28;20048;-75
2023/05/11 06:01:12;;;;;;;2.88;1.67;;;14.60;99.00;;;;;;5053859;28;20033;-83
2023/05/11 06:03:38;;;;;;;2.03;1.70;;;14.70;98.40;;;;;;5052938;28;20032;-83
2023/05/11 06:06:05;;;;;;;2.72;1.52;;;14.70;98.40;;;;;;5053205;28;20076;-77
2023/05/11 06:08:31;;;;;;;2.95;1.58;;;14.70;98.20;;;;;;5050015;28;20099;-77
2023/05/11 06:10:57;;;;;;;1.70;1.60;;;14.80;98.00;;;;;;5053258;28;20107;-78
2023/05/11 06:13:23;;;;;;;2.75;1.98;;;14.70;97.90;;;;;;5052982;28;20163;-77
2023/05/11 06:15:49;;;;;;;2.00;1.67;;;14.70;98.10;;;;;;5052982;28;20048;-76
2023/05/11 06:18:14;;;;;;;2.88;2.00;;;14.70;98.20;;;;;;5052741;28;20048;-76
2023/05/11 06:20:41;;;;;;;4.43;2.20;;;14.70;98.60;;;;;;5052089;28;20048;-76
2023/05/11 06:23:06;;;;;;;6.28;3.45;;;14.70;98.90;;;;;;5034366;28;20486;-75
2023/05/11 06:25:36;;;;;;;2.58;2.17;;;14.70;99.60;;;;;;5052344;28;20040;-76
2023/05/11 06:28:02;;;;;;;3.92;2.40;;;14.70;99.90;;;;;;5052266;28;20029;-76
2023/05/11 06:30:28;;;;;;;5.20;2.35;;;14.70;99.90;;;;;;5051969;28;20043;-76
2023/05/11 06:32:54;;;;;;;6.35;2.10;;;14.70;99.60;;;;;;5050701;28;20072;-76
2023/05/11 06:35:21;;;;;;;3.22;2.42;;;14.70;99.40;;;;;;5053295;28;20069;-76
2023/05/11 06:37:47;;;;;;;2.38;2.08;;;14.70;99.90;;;;;;5053255;28;20044;-76
2023/05/11 06:40:15;;;;;;;6.47;2.72;;;14.60;99.50;;;;;;5053007;28;20033;-76
2023/05/11 06:42:41;;;;;;;2.80;2.50;;;14.70;99.60;;;;;;5053187;28;20029;-76
2023/05/11 06:45:07;;;;;;;2.30;2.08;;;14.70;99.50;;;;;;5051994;28;20490;-77
2023/05/11 06:47:33;;;;;;;2.55;2.35;;;14.70;98.80;;;;;;5052823;28;20363;-77
2023/05/11 06:49:59;;;;;;;3.03;2.30;;;14.70;99.10;;;;;;5052704;28;20037;-76
2023/05/11 06:52:25;;;;;;;10.25;2.50;;;14.70;99.40;;;;;;5052854;28;20033;-77
2023/05/11 06:54:50;;;;;;;2.90;2.47;;;14.70;99.90;;;;;;5052124;28;20049;-77
2023/05/11 06:57:16;;;;;;;3.58;2.70;;;14.30;99.90;;;;;;5051690;28;20040;-77
2023/05/11 06:59:43;;;;;;;5.55;2.95;;;;;;;;;;5032870;28;20037;-76
2023/05/11 07:02:09;;;;;;;3.50;3.20;;;14.60;99.90;;;;;;5052072;28;20028;-76
2023/05/11 07:04:34;;;;;;;3.67;3.08;;;14.50;99.90;;;;;;5052118;28;20033;-75
2023/05/11 07:07:00;;;;;;;4.68;3.50;;;14.50;99.90;;;;;;5052767;28;20033;-74
2023/05/11 07:09:26;;;;;;;5.60;3.03;;;14.50;99.90;;;;;;5052675;28;20033;-77
2023/05/11 07:11:52;;;;;;;4.28;3.85;;;14.50;99.90;;;;;;5052319;28;20091;-77
2023/05/11 07:14:17;;;;;;;8.02;3.97;;;14.50;99.90;;;;;;5052192;28;20099;-78
2023/05/11 07:16:45;;;;;;;5.43;3.65;;;14.50;99.90;;;;;;5052431;28;20037;-76
2023/05/11 07:19:10;;;;;;;4.75;3.42;;;14.50;99.90;;;;;;5052202;28;20033;-74
2023/05/11 07:21:36;;;;;;;6.85;3.35;;;14.60;99.90;;;;;;5052356;28;20036;-76
2023/05/11 07:24:02;;;;;;;5.53;3.15;;;14.60;99.90;;;;;;5052437;28;20029;-76
2023/05/11 07:26:31;;;;;;;3.72;3.03;;;14.60;99.90;;;;;;5498154;22;20200;-73
2023/05/11 07:28:57;;;;;;;4.88;3.00;;;14.70;99.90;;;;;;5062458;23;20052;-75
2023/05/11 07:31:23;;;;;;;8.30;3.10;;;14.70;99.90;;;;;;5055903;28;20399;-75
2023/05/11 07:33:49;;;;;;;4.78;3.33;;;14.60;99.90;;;;;;5052509;28;20382;-74
2023/05/11 07:36:14;;;;;;;5.05;3.13;;;14.60;99.90;;;;;;5052298;28;20049;-75
2023/05/11 07:38:40;;;;;;;4.40;2.75;;;14.70;99.90;;;;;;5052363;28;20033;-78
2023/05/11 07:41:06;;;;;;;4.93;3.70;;;14.70;99.90;;;;;;5052329;28;20120;-78
2023/05/11 07:43:32;;;;;;;5.88;3.70;;;14.70;99.90;;;;;;5051725;28;20363;-76
2023/05/11 07:45:57;;;;;;;3.90;3.20;;;14.70;99.90;;;;;;5052037;28;20498;-76
2023/05/11 07:48:23;;;;;;;3.67;3.30;;;14.70;99.90;;;;;;5051519;28;20029;-77
2023/05/11 07:50:49;;;;;;;4.05;3.08;;;14.70;99.90;;;;;;5052184;28;20036;-75
2023/05/11 07:53:15;;;;;;;6.40;3.05;;;14.70;99.90;;;;;;5051288;28;20103;-76
2023/05/11 07:55:41;;;;;;;6.18;2.90;;;14.70;99.90;;;;;;5053030;28;20045;-76
2023/05/11 07:58:07;;;;;;;4.15;2.80;;;14.70;99.90;;;;;;5055703;28;20037;-74
2023/05/11 08:00:33;;;;;;;10.60;3.70;;;14.70;99.90;;;;;;5055543;28;20037;-75
2023/05/11 08:02:59;;;;;;;6.10;3.25;;;14.70;99.90;;;;;;5055927;28;20041;-75
2023/05/11 08:05:25;;;;;;;3.88;2.67;;;14.80;99.90;;;;;;5055741;28;20099;-75
2023/05/11 08:07:50;;;;;;;4.05;3.40;;;14.80;99.90;;;;;;5055369;28;20112;-75
2023/05/11 08:10:16;;;;;;;5.65;3.20;;;14.80;99.90;;;;;;5055821;28;20393;-76
2023/05/11 08:12:42;;;;;;;3.88;3.47;;;14.80;99.90;;;;;;5056027;28;20040;-76
2023/05/11 08:15:08;;;;;;;4.78;3.53;;;14.80;99.90;;;;;;5055546;28;20065;-77
2023/05/11 08:17:35;;;;;;;3.95;3.00;;;14.80;99.90;;;;;;5055693;28;20036;-76
2023/05/11 08:20:01;;;;;;;7.10;2.90;;;14.80;99.90;;;;;;5055527;28;20021;-75
2023/05/11 08:22:27;;;;;;;5.07;3.15;;;14.90;99.90;;;;;;5055884;28;20072;-75
2023/05/11 08:24:53;;;;;;;7.00;2.97;;;14.80;99.90;;;;;;5055714;28;20493;-74
2023/05/11 08:27:18;;;;;;;4.63;3.00;;;14.90;99.90;;;;;;5055212;28;20057;-75
2023/05/11 08:29:44;;;;;;;5.05;2.60;;;15.00;99.90;;;;;;5055502;28;20021;-75
2023/05/11 08:32:10;;;;;;;4.63;2.80;;;15.00;99.90;;;;;;5055238;28;20040;-74
2023/05/11 08:34:36;;;;;;;4.65;3.22;;;15.00;99.90;;;;;;5055402;28;20158;-75
2023/05/11 08:37:03;;;;;;;5.50;3.67;;;15.00;99.90;;;;;;5055407;28;20067;-74
2023/05/11 08:39:28;;;;;;;10.60;3.35;;;15.00;99.90;;;;;;5055148;28;20037;-74
2023/05/11 08:42:01;;;;;;;3.10;2.38;;;15.00;99.90;;;;;;5055281;28;20332;-74
2023/05/11 08:44:29;;;;;;;3.65;2.50;;;15.00;99.90;;;;;;5055365;28;20124;-74
2023/05/11 08:46:57;;;;;;;3.60;2.92;;;15.00;99.90;;;;;;5055275;28;20147;-74
2023/05/11 08:49:23;;;;;;;2.35;2.05;;;15.10;99.90;;;;;;5054969;28;20048;-74
2023/05/11 08:51:48;;;;;;;6.30;2.72;;;15.10;99.90;;;;;;5055236;28;20049;-74
2023/05/11 08:54:14;;;;;;;7.43;2.58;;;15.10;99.90;;;;;;5054924;28;20040;-74
2023/05/11 08:56:42;;;;;;;3.38;2.30;;;15.20;99.90;;;;;;5054981;28;20091;-74
2023/05/11 08:59:08;;;;;;;7.80;2.50;;;15.20;99.90;;;;;;5054851;28;20037;-74
2023/05/11 09:01:38;;;;;;;3.58;2.10;;;15.20;99.90;;;;;;5054765;28;20048;-73
2023/05/11 09:04:05;;;;;;;3.38;2.10;;;15.20;99.90;;;;;;5054533;28;20111;-74
2023/05/11 09:06:32;;;;;;;3.92;2.17;;;15.20;99.90;;;;;;5054019;28;20109;-75
2023/05/11 09:08:59;;;;;;;5.15;1.65;;;15.20;99.90;;;;;;5054565;28;20033;-72
2023/05/11 09:11:26;;;;;;;2.30;1.58;;;15.30;99.90;;;;;;5054550;28;20029;-72
2023/05/11 09:13:52;;;;;;;2.30;1.65;;;15.30;99.90;;;;;;5036252;28;20182;-75
2023/05/11 09:16:18;;;;;;;2.53;1.45;;;15.40;99.90;;;;;;5054570;28;20045;-73
2023/05/11 09:18:48;;;;;;;4.35;1.63;;;15.40;99.90;;;;;;5054491;28;20025;-75
2023/05/11 09:21:14;;;;;;;3.22;1.75;;;15.40;99.90;;;;;;5054242;28;20029;-75
2023/05/11 09:23:40;;;;;;;5.78;1.88;;;15.40;99.90;;;;;;5054090;28;20030;-75
2023/05/11 09:26:19;;;;;;;3.60;1.50;;;15.40;99.90;;;;;;5056097;28;20090;-75
2023/05/11 09:29:03;;;;;;;3.67;1.70;;;15.40;99.90;;;;;;5056166;28;20131;-72
2023/05/11 09:31:38;;;;;;;4.68;1.60;;;15.40;99.90;;;;;;5074114;28;20033;-74
2023/05/11 09:34:12;;;;;;;1.98;1.50;;;15.50;99.90;;;;;;5074554;28;20032;-74
2023/05/11 09:36:38;;;;;;;4.75;1.60;;;15.50;99.90;;;;;;5074214;28;20029;-74
2023/05/11 09:39:04;;;;;;;3.17;1.70;;;15.50;99.90;;;;;;5073819;28;20124;-72
2023/05/11 09:41:30;;;;;;;2.58;1.50;;;15.50;99.90;;;;;;5073764;28;20529;-72
2023/05/11 09:44:13;;;;;;;1.98;1.65;;;15.60;99.90;;;;;;5074037;28;20028;-74
2023/05/11 09:46:39;;;;;;;;;;;15.50;99.90;;;;;;5056015;28;20111;-75
2023/05/11 09:49:06;;;;;;;1.40;1.30;;;15.50;99.90;;;;;;5073801;28;19905;-75
2023/05/11 09:51:35;;;;;;;3.47;1.90;;;15.50;99.90;;;;;;5073648;28;20333;-75
2023/05/11 09:54:14;;;;;;;4.32;2.38;;;15.50;99.90;;;;;;5073741;28;20024;-75
2023/05/11 09:56:48;;;;;;;3.35;1.90;;;15.50;99.90;;;;;;5042891;28;20207;-74
2023/05/11 09:59:36;;;;;;;2.47;1.75;;;15.50;99.90;;;;;;5052785;28;20482;-74
2023/05/11 10:02:22;;;;;;;4.38;2.13;;;15.50;99.90;;;;;;5050689;28;20124;-74
2023/05/11 10:04:50;;;;;;;3.25;2.00;;;15.40;99.90;;;;;;5053337;28;20411;-75
2023/05/11 10:07:42;;;;;;;3.58;2.30;;;15.40;99.90;;;;;;5035757;28;20116;-75
2023/05/11 10:10:10;;;;;;;3.03;2.28;;;15.40;99.90;;;;;;5050719;28;20044;-75
2023/05/11 10:12:39;;;;;;;3.90;2.00;;;15.50;99.90;;;;;;5035212;28;20410;-75
2023/05/11 10:15:07;;;;;;;6.68;2.30;;;15.50;99.90;;;;;;5053215;28;20115;-75
2023/05/11 10:17:34;;;;;;;3.80;1.92;;;15.40;99.90;;;;;;5053204;28;20065;-75
2023/05/11 10:20:02;;;;;;;4.38;1.48;;;15.40;99.90;;;;;;5052227;28;20390;-75
2023/05/11 10:22:28;;;;;;;3.20;1.80;;;15.40;99.90;;;;;;5052689;28;20078;-74
2023/05/11 10:24:58;;;;;;;1.75;1.30;;;15.40;99.90;;;;;;5035182;28;20033;-76
2023/05/11 10:27:24;;;;;;;2.72;1.30;;;15.30;99.90;;;;;;5053124;28;20041;-75
2023/05/11 10:29:50;;;;;;;1.90;1.65;;;15.30;99.90;;;;;;5053363;28;20033;-75
2023/05/11 10:32:18;;;;;;;3.38;1.40;;;15.30;99.90;;;;;;5053397;28;20424;-75
2023/05/11 10:34:46;;;;;;;1.70;1.60;;;15.30;99.90;;;;;;5052871;28;20498;-75
2023/05/11 10:37:15;;;;;;;2.13;1.50;;;15.40;99.90;;;;;;5053046;28;20114;-75
2023/05/11 10:39:42;;;;;;;3.58;1.70;;;15.30;99.90;;;;;;5053214;28;20402;-75
2023/05/11 10:42:46;;;;;;;3.00;1.40;;;15.30;99.90;;;;;;5052963;28;20087;-75
2023/05/11 10:45:38;;;;;;;2.97;1.30;;;15.40;99.90;;;;;;5052775;28;20117;-74
2023/05/11 10:48:23;;;;;;;;;;;15.40;99.90;;;;;;5035655;28;20033;-75
2023/05/11 10:51:13;;;;;;;3.63;1.38;;;15.40;99.90;;;;;;5053326;28;20350;-75
2023/05/11 10:53:45;;;;;;;3.03;1.10;;;15.40;99.90;;;;;;5052787;28;20033;-75
2023/05/11 10:56:33;;;;;;;1.75;1.23;;;15.40;99.90;;;;;;5052899;28;20094;-75
2023/05/11 10:59:21;;;;;;;3.45;1.30;;;15.40;99.90;;;;;;5053144;28;20028;-76
2023/05/11 11:01:51;;;;;;;1.98;1.33;;;15.40;99.90;;;;;;5053365;28;20079;-76
2023/05/11 11:04:19;;;;;;;1.63;1.50;;;15.40;99.90;;;;;;5052963;28;20479;-75
2023/05/11 11:06:45;;;;;;;1.20;1.10;;;15.50;99.90;;;;;;5052713;28;20459;-76
2023/05/11 11:09:14;;;;;;;2.15;1.10;;;15.50;99.90;;;;;;5052932;28;20033;-75
2023/05/11 11:11:45;;;;;;;1.00;0.70;;;15.50;99.90;;;;;;5052749;28;20029;-76
2023/05/11 11:14:15;;;;;;;1.25;0.70;;;15.50;99.90;;;;;;5052521;28;20037;-75
2023/05/11 11:17:15;;;;;;;2.08;0.82;;;15.50;99.90;;;;;;5052702;28;20037;-75
2023/05/11 11:19:42;;;;;;;1.00;0.90;;;15.60;99.90;;;;;;5034783;28;20482;-75
2023/05/11 11:22:33;;;;;;;2.20;1.10;;;15.60;99.90;;;;;;5052587;28;20435;-75
2023/05/11 11:25:00;;;;;;;2.03;1.00;;;15.70;99.90;;;;;;5052530;28;20033;-75
2023/05/11 11:27:43;;;;;;;0.95;0.80;;;15.70;99.90;;;;;;5052024;28;20498;-76
2023/05/11 11:30:23;;;;;;;4.45;1.13;;;15.80;99.90;;;;;;5050460;28;20414;-76
2023/05/11 11:32:51;;;;;;;2.60;0.90;;;15.80;99.90;;;;;;5054817;28;20084;-75
2023/05/11 11:35:38;;;;;;;1.83;0.77;;;15.80;99.90;;;;;;5056808;28;20049;-76
2023/05/11 11:38:05;;;;;;;1.65;0.82;;;15.90;99.90;;;;;;5063632;28;20048;-75
2023/05/11 11:40:42;;;;;;;1.52;0.85;;;15.90;99.90;;;;;;5067796;28;20033;-76
2023/05/11 11:43:17;;;;;;;2.85;0.88;;;15.90;99.90;;;;;;5058708;28;20037;-76
2023/05/11 11:45:59;;;;;;;0.88;0.60;;;15.90;99.90;;;;;;5056352;28;20041;-75
2023/05/11 11:48:34;;;;;;;1.00;0.65;;;15.90;99.90;;;;;;5055996;28;20061;-75
2023/05/11 11:51:09;;;;;;;2.08;0.68;;;15.90;99.90;;;;;;5056416;28;20029;-74
2023/05/11 11:53:40;;;;;;;1.17;0.57;;;15.90;99.90;;;;;;5054392;28;20063;-75
2023/05/11 11:56:27;;;;;;;1.30;0.60;;;15.80;99.40;;;;;;5035253;28;20157;-74
2023/05/11 11:59:00;;;;;;;0.77;0.55;;;15.90;99.00;;;;;;5053405;28;20033;-75
2023/05/11 12:01:28;;;;;;;1.98;0.55;;;15.90;98.80;;;;;;5055845;28;20044;-75
2023/05/11 12:04:18;;;;;;;1.80;0.60;;;15.90;98.70;;;;;;5056025;28;20100;-74
2023/05/11 12:06:50;;;;;;;1.35;0.40;;;15.90;98.50;;;;;;5056031;28;20033;-73
2023/05/11 12:09:18;;;;;;;0.95;0.50;;;15.90;98.20;;;;;;5055727;28;20048;-75
2023/05/11 12:11:46;;;;;;;0.80;0.47;;;15.90;98.20;;;;;;5055642;28;20035;-75
2023/05/11 12:14:12;;;;;;;2.38;0.52;;;15.90;97.90;;;;;;5055186;28;20430;-75
2023/05/11 12:16:38;;;;;;;5.85;0.77;;;15.90;98.30;;;;;;5055450;28;20040;-75
2023/05/11 12:19:04;;;;;;;0.75;0.40;;;15.90;97.60;;;;;;5055638;28;20037;-77
2023/05/11 12:21:31;;;;;;;1.27;0.50;;;15.90;98.10;;;;;;5055571;28;20530;-75
2023/05/11 12:24:01;;;;;;;1.63;0.57;;;15.90;97.90;;;;;;5055328;28;20037;-75
2023/05/11 12:26:29;;;;;;;1.77;0.80;;;15.90;97.00;;;;;;5037611;28;20071;-75
2023/05/11 12:29:12;;;;;;;0.98;0.50;;;15.90;97.60;;;;;;5055160;28;20515;-76
2023/05/11 12:31:40;;;;;;;0.90;0.43;;;15.90;98.30;;;;;;5054865;28;20120;-75
2023/05/11 12:34:12;;;;;;;3.00;0.80;;;15.80;98.20;;;;;;5055083;28;20406;-75
2023/05/11 12:36:38;;;;;;;0.77;0.43;;;15.80;98.00;;;;;;5037115;28;20037;-74
2023/05/11 12:39:04;;;;;;;0.68;0.50;;;15.80;97.90;;;;;;5054971;28;20339;-76
2023/05/11 12:41:30;;;;;;;0.85;0.40;;;15.80;98.10;;;;;;5037371;28;20065;-76
2023/05/11 12:43:56;;;;;;;0.55;0.30;;;15.80;97.90;;;;;;5055224;28;20394;-76
2023/05/11 12:46:22;;;;;;;0.50;0.30;;;15.80;98.40;;;;;;5054953;28;20123;-75
2023/05/11 12:48:50;;;;;;;2.08;0.40;;;15.80;98.20;;;;;;5055350;28;20037;-75
2023/05/11 12:51:41;;;;;;;1.23;0.40;;;15.80;98.90;;;;;;5055015;28;20037;-76
2023/05/11 12:54:06;;;;;;;3.22;0.50;;;15.80;97.90;;;;;;5054816;28;20487;-75
2023/05/11 12:56:47;;;;;;;0.68;0.50;;;15.80;98.90;;;;;;5055025;28;20040;-76
2023/05/11 12:59:30;;;;;;;0.30;0.30;;;15.80;98.40;;;;;;5054962;28;20486;-75
2023/05/11 13:02:05;;;;;;;0.55;0.40;;;15.80;97.80;;;;;;5054737;28;20518;-75
2023/05/11 13:04:31;;;;;;;1.08;0.60;;;15.80;98.50;;;;;;5036872;28;20048;-75
2023/05/11 13:06:57;;;;;;;1.30;0.32;;;15.80;98.80;;;;;;5054451;28;20033;-76
2023/05/11 13:09:24;;;;;;;0.75;0.40;;;15.80;98.50;;;;;;5054658;28;20036;-75
2023/05/11 13:12:16;;;;;;;3.30;0.40;;;15.70;98.10;;;;;;5054742;28;20036;-75
2023/05/11 13:14:46;;;;;;;0.70;0.45;;;15.80;97.50;;;;;;5054675;28;20039;-75
2023/05/11 13:17:12;;;;;;;1.73;0.45;;;15.80;97.30;;;;;;5054182;28;20033;-75